Latest Coastal Weather Observations for Pirlangimpi (Garden Point)

IDD60701

Issued at 2:31 am CST Friday 20 September 2019 (issued every 10 minutes, with the page automatically refreshed every 10 minutes)

About coastal observations | Map of coastal stations | Coastal observations for NT | Marine services | Other Formats
Station Details ID: 014142 Name: PIRLANGIMPI AIRPORT Lat: -11.40 Lon: 130.42 Height: 18.3 m
Data from the previous 72 hours. | See also: Recent months at Pirlangimpi (Garden Point)
Date/Time
CST
Wind Sea
Height
m
Swell Vis
km
Cloud Weather Temp
°C
Press
hPa
Rain since
9am
mm
Dir  Spd
kts
Gust
kts
Height
m
Period
s
Dir
20/02:30am CALM 0 0 - - - - - - - 19.6 1013.0 0.0
20/02:00am CALM 0 0 - - - - - - - 20.0 1013.1 0.0
20/01:30am CALM 0 0 - - - - - - - 20.4 1013.3 0.0
20/01:00am CALM 0 0 - - - - - - - 20.3 1013.7 0.0
20/12:30am CALM 0 0 - - - - - - - 20.6 1014.0 0.0
20/12:00am CALM 0 0 - - - - - - - 21.2 1014.3 0.0
 
Date/Time
CST
Wind Sea
Height
m
Swell Vis
km
Cloud Weather Temp
°C
Press
hPa
Rain since
9am
mm
Dir  Spd
kts
Gust
kts
Height
m
Period
s
Dir
19/11:30pm CALM 0 1 - - - - - - - 21.1 1014.5 0.0
19/11:00pm NE 1 1 - - - - - - - 21.4 1014.6 0.0
19/10:30pm CALM 0 0 - - - - - - - 21.6 1014.5 0.0
19/10:00pm CALM 0 0 - - - - - - - 21.9 1014.3 0.0
19/09:30pm CALM 0 0 - - - - - - - 21.9 1013.9 0.0
19/09:00pm CALM 0 1 - - - - - - - 22.5 1013.5 0.0
19/08:30pm N 1 2 - - - - - - - 23.2 1013.4 0.0
19/08:00pm N 1 2 - - - - - - - 23.7 1013.3 0.0
19/07:30pm N 1 3 - - - - - - - 24.7 1013.0 0.0
19/07:00pm NNE 2 5 - - - - - - - 25.6 1012.8 0.0
19/06:30pm NNE 4 9 - - - - - - - 26.6 1012.6 0.0
19/06:00pm NNE 4 9 - - - - - - - 27.6 1012.4 0.0
19/05:30pm NNE 4 9 - - - - - - - 28.8 1012.3 0.0
19/05:00pm NNE 5 9 - - - - - - - 29.8 1012.2 0.0
19/04:30pm NNE 6 11 - - - - - - - 30.2 1012.0 0.0
19/04:00pm NW 6 11 - - - - - - - 29.2 1012.1 0.0
19/03:30pm NW 6 12 - - - - - - - 30.1 1012.1 0.0
19/03:00pm NW 5 11 - - - - - - - 31.1 1012.0 0.0
19/02:30pm NW 5 10 - - - - - - - 32.0 1011.9 0.0
19/02:00pm ESE 5 8 - - - - - - - 33.5 1012.2 0.0
19/01:30pm NE 4 10 - - - - - - - 33.6 1012.5 0.0
19/01:00pm ENE 9 13 - - - - - - - 34.0 1012.9 0.0
19/12:30pm E 6 12 - - - - - - - 32.9 1013.6 0.0
19/12:00pm NE 5 10 - - - - - - - 32.7 1014.3 0.0
19/11:30am NE 5 13 - - - - - - - 31.5 1014.7 0.0
19/11:00am SE 3 8 - - - - - - - 30.8 1015.2 0.0
19/10:30am SE 6 8 - - - - - - - 29.7 1015.7 0.0
19/10:00am S 3 5 - - - - - - - 27.8 1016.0 0.0
19/09:30am SSE 4 7 - - - - - - - 27.4 1016.2 0.0
19/09:00am SE 3 5 - - - - - - - 26.9 1016.3 0.0
19/08:30am E 1 3 - - - - - - - 26.0 1016.1 0.0
19/08:00am CALM 0 0 - - - - - - - 23.7 1016.0 0.0
19/07:30am CALM 0 0 - - - - - - - 20.6 1015.8 0.0
19/07:00am CALM 0 0 - - - - - - - 19.8 1015.4 0.0
19/06:30am E 1 1 - - - - - - - 19.8 1015.0 0.0
19/06:00am E 1 1 - - - - - - - 20.4 1014.8 0.0
19/05:30am ESE 2 3 - - - - - - - 21.3 1014.7 0.0
19/05:00am ESE 2 3 - - - - - - - 21.5 1014.6 0.0
19/04:30am SE 2 3 - - - - - - - 21.2 1014.6 0.0
19/04:00am SE 2 3 - - - - - - - 21.2 1014.3 0.0
19/03:30am SE 2 2 - - - - - - - 20.9 1014.1 0.0
19/03:00am SE 2 3 - - - - - - - 21.2 1014.3 0.0
19/02:30am E 2 3 - - - - - - - 21.5 1014.3 0.0
19/02:00am ESE 1 2 - - - - - - - 21.7 1014.6 0.0
19/01:30am SE 2 3 - - - - - - - 21.9 1014.9 0.0
19/01:00am SE 2 3 - - - - - - - 21.9 1015.4 0.0
19/12:30am SE 1 2 - - - - - - - 21.9 1015.6 0.0
19/12:00am SSE 2 3 - - - - - - - 22.2 1015.8 0.0
 
Date/Time
CST
Wind Sea
Height
m
Swell Vis
km
Cloud Weather Temp
°C
Press
hPa
Rain since
9am
mm
Dir  Spd
kts
Gust
kts
Height
m
Period
s
Dir
18/11:30pm SE 1 2 - - - - - - - 22.4 1015.8 0.0
18/11:00pm S 2 2 - - - - - - - 23.1 1015.9 0.0
18/10:30pm ESE 2 5 - - - - - - - 23.9 1015.6 0.0
18/10:00pm ENE 6 9 - - - - - - - 24.3 1015.3 0.0
18/09:30pm ENE 5 7 - - - - - - - 24.4 1015.0 0.0
18/09:00pm NE 4 8 - - - - - - - 24.6 1014.7 0.0
18/08:30pm ENE 6 9 - - - - - - - 25.1 1014.4 0.0
18/08:00pm NE 8 10 - - - - - - - 25.4 1014.1 0.0
18/07:30pm NE 7 10 - - - - - - - 25.8 1013.8 0.0
18/07:00pm NE 9 13 - - - - - - - 26.3 1013.5 0.0
18/06:30pm NE 11 15 - - - - - - - 27.2 1013.2 0.0
18/06:00pm NE 8 14 - - - - - - - 28.0 1013.1 0.0
18/05:30pm NE 9 16 - - - - - - - 28.6 1012.9 0.0
18/05:00pm NE 10 15 - - - - - - - 29.6 1012.7 0.0
18/04:30pm NE 10 15 - - - - - - - 30.7 1012.7 0.0
18/04:00pm NE 10 18 - - - - - - - 30.8 1012.7 0.0
18/03:30pm NE 8 15 - - - - - - - 31.0 1012.7 0.0
18/03:00pm NE 8 12 - - - - - - - 32.7 1012.9 0.0
18/02:30pm ENE 9 15 - - - - - - - 33.5 1013.2 0.0
18/02:00pm E 8 13 - - - - - - - 33.2 1013.7 0.0
18/01:30pm ENE 8 14 - - - - - - - 32.8 1014.0 0.0
18/01:00pm ENE 6 12 - - - - - - - 32.4 1014.5 0.0
18/12:30pm ENE 6 11 - - - - - - - 31.6 1015.1 0.0
18/12:00pm ESE 6 14 - - - - - - - 30.6 1016.0 0.0
18/11:30am E 6 13 - - - - - - - 30.6 1016.6 0.0
18/11:00am ENE 8 16 - - - - - - - 30.3 1016.9 0.0
18/10:30am E 6 12 - - - - - - - 30.1 1017.2 0.0
18/10:00am SE 6 10 - - - - - - - 28.7 1017.7 0.0
18/09:30am E 7 11 - - - - - - - 28.3 1017.8 0.0
18/09:00am SE 4 6 - - - - - - - 26.6 1017.6 0.0
18/08:30am SE 3 5 - - - - - - - 25.3 1017.6 0.0
18/08:00am SSE 2 4 - - - - - - - 24.2 1017.4 0.0
18/07:30am ESE 2 3 - - - - - - - 23.3 1017.1 0.0
18/07:00am SE 1 3 - - - - - - - 22.6 1016.8 0.0
18/06:30am SE 2 3 - - - - - - - 22.7 1016.6 0.0
18/06:00am ESE 3 4 - - - - - - - 22.6 1016.4 0.0
18/05:30am SE 2 4 - - - - - - - 22.7 1016.1 0.0
18/05:00am SE 2 3 - - - - - - - 22.9 1015.9 0.0
18/04:30am SE 3 4 - - - - - - - 22.8 1015.8 0.0
18/04:00am SSE 3 5 - - - - - - - 22.7 1015.4 0.0
18/03:30am SE 3 4 - - - - - - - 22.7 1015.2 0.0
18/03:00am SSE 2 3 - - - - - - - 22.6 1015.1 0.0
18/02:30am SE 2 2 - - - - - - - 22.4 1014.9 0.0
18/02:00am SE 1 1 - - - - - - - 22.5 1015.0 0.0
18/01:30am CALM 0 0 - - - - - - - 22.2 1015.2 0.0
18/01:00am CALM 0 0 - - - - - - - 23.0 1015.5 0.0
18/12:30am CALM 0 1 - - - - - - - 23.5 1015.7 0.0
18/12:00am S 2 3 - - - - - - - 23.6 1015.7 0.0
 
Date/Time
CST
Wind Sea
Height
m
Swell Vis
km
Cloud Weather Temp
°C
Press
hPa
Rain since
9am
mm
Dir  Spd
kts
Gust
kts
Height
m
Period
s
Dir
17/11:30pm E 3 5 - - - - - - - 23.9 1015.7 0.0
17/11:00pm ENE 4 6 - - - - - - - 24.0 1015.5 0.0
17/10:30pm ENE 6 9 - - - - - - - 24.2 1015.5 0.0
17/10:00pm NE 6 9 - - - - - - - 24.2 1015.4 0.0
17/09:30pm NE 7 12 - - - - - - - 24.4 1015.2 0.0
17/09:00pm NE 6 10 - - - - - - - 24.4 1014.9 0.0
17/08:30pm NE 6 9 - - - - - - - 24.5 1014.6 0.0
17/08:00pm NE 8 11 - - - - - - - 24.8 1014.3 0.0
17/07:30pm NE 8 13 - - - - - - - 25.1 1014.1 0.0
17/07:00pm NE 8 11 - - - - - - - 25.5 1013.8 0.0
17/06:30pm NE 11 17 - - - - - - - 26.3 1013.4 0.0
17/06:00pm NE 11 16 - - - - - - - 26.7 1013.2 0.0
17/05:30pm NE 9 16 - - - - - - - 27.5 1012.9 0.0
17/05:00pm NE 11 19 - - - - - - - 27.8 1012.9 0.0
17/04:30pm NE 9 15 - - - - - - - 28.9 1012.7 0.0
17/04:00pm NNE 6 14 - - - - - - - 29.1 1012.6 0.0
17/03:30pm NNE 7 11 - - - - - - - 30.0 1012.6 0.0
17/03:00pm N 8 13 - - - - - - - 30.1 1012.7 0.0
17/02:30pm NNE 6 12 - - - - - - - 30.9 1012.9 0.0
17/02:00pm NNE 7 14 - - - - - - - 30.5 1013.3 0.0
17/01:30pm NNE 8 16 - - - - - - - 30.9 1013.7 0.0
17/01:00pm ENE 6 11 - - - - - - - 31.5 1014.3 0.0
17/12:30pm NE 8 14 - - - - - - - 31.4 1014.7 0.0
17/12:00pm ENE 7 14 - - - - - - - 30.8 1015.2 0.0
17/11:30am ESE 6 12 - - - - - - - 30.2 1015.7 0.0
17/11:00am ENE 9 13 - - - - - - - 30.0 1016.2 0.0
17/10:30am E 7 12 - - - - - - - 29.6 1016.5 0.0
17/10:00am E 7 12 - - - - - - - 28.7 1016.9 0.0
17/09:30am ESE 7 10 - - - - - - - 27.4 1017.0 0.0
17/09:00am SE 3 8 - - - - - - - 25.8 1016.9 0.0
17/08:30am SSE 4 5 - - - - - - - 24.8 1016.7 0.0
17/08:00am SSE 2 3 - - - - - - - 23.9 1016.4 0.0
17/07:30am SSE 1 2 - - - - - - - 22.5 1016.1 0.0
17/07:00am SE 2 3 - - - - - - - 21.5 1015.7 0.0
17/06:30am SE 2 2 - - - - - - - 21.6 1015.5 0.0
17/06:00am SSE 2 3 - - - - - - - 21.6 1015.3 0.0
17/05:30am SSE 2 3 - - - - - - - 21.7 1014.9 0.0
17/05:00am SE 1 3 - - - - - - - 21.8 1014.7 0.0
17/04:30am SE 1 2 - - - - - - - 21.4 1014.5 0.0
17/04:00am SSE 2 3 - - - - - - - 21.5 1014.3 0.0
17/03:30am SSE 2 4 - - - - - - - 21.7 1014.3 0.0
17/03:00am SE 3 5 - - - - - - - 21.5 1014.2 0.0

Other formats

Comma delimited format used in spreadsheet applications
http://www.bom.gov.au/fwo/IDD60701/IDD60701.94119.axf

JavaScript Object Notation format (JSON) in row-major order
http://www.bom.gov.au/fwo/IDD60701/IDD60701.94119.json

Data quality

Most of these data are generated automatically and are frequently updated. Quality checks on data are not normally performed. It is possible for incorrect values to appear. Refer to information at About Latest Weather Observations and please check the disclaimer before using these data.